createdAt,value
2022-12-31T09:49:01.438Z,3.40
2022-12-31T09:50:01.394Z,3.30
2022-12-31T09:51:01.336Z,2.90
2022-12-31T09:52:01.283Z,2.70
2022-12-31T09:53:01.224Z,2.80
2022-12-31T09:54:01.172Z,3.90
2022-12-31T09:55:01.134Z,3.00
2022-12-31T09:56:01.072Z,3.30
2022-12-31T09:57:01.034Z,2.70
2022-12-31T09:58:00.956Z,2.80
2022-12-31T09:59:00.905Z,3.00
2022-12-31T10:00:00.848Z,2.90
2022-12-31T10:01:00.922Z,3.40
2022-12-31T10:02:00.868Z,2.50
2022-12-31T10:03:00.719Z,2.00
2022-12-31T10:04:00.603Z,2.40
2022-12-31T10:05:00.539Z,2.30
2022-12-31T10:06:00.488Z,3.00
2022-12-31T10:07:00.420Z,2.10
2022-12-31T10:08:00.338Z,2.60
2022-12-31T10:09:00.269Z,4.10
2022-12-31T10:10:00.230Z,3.80
2022-12-31T10:11:00.163Z,3.10
2022-12-31T10:12:00.102Z,2.80
2022-12-31T10:13:00.017Z,2.20
2022-12-31T10:13:59.950Z,2.20
2022-12-31T10:14:59.881Z,2.30
2022-12-31T10:15:59.862Z,2.60
2022-12-31T10:16:59.831Z,3.10
2022-12-31T10:17:59.698Z,3.50
2022-12-31T10:18:59.622Z,3.50
2022-12-31T10:19:59.552Z,3.10
2022-12-31T10:20:59.495Z,2.40
2022-12-31T10:21:59.470Z,2.30
2022-12-31T10:22:59.345Z,2.00
2022-12-31T10:23:59.289Z,2.70
2022-12-31T10:24:59.214Z,3.60
2022-12-31T10:25:59.154Z,2.80
2022-12-31T10:26:59.075Z,3.70
2022-12-31T10:27:59.008Z,2.80
2022-12-31T10:28:58.917Z,3.20
2022-12-31T10:29:58.846Z,3.10
2022-12-31T10:30:58.837Z,2.70
2022-12-31T10:31:58.720Z,2.80
2022-12-31T10:32:58.645Z,2.60
2022-12-31T10:33:58.556Z,3.00
2022-12-31T10:34:58.488Z,2.50
2022-12-31T10:35:58.423Z,3.30
2022-12-31T10:36:58.349Z,3.90
2022-12-31T10:37:58.281Z,2.90
2022-12-31T10:38:58.179Z,6.60
2022-12-31T10:39:58.099Z,6.50
2022-12-31T10:40:58.037Z,3.20
2022-12-31T10:41:57.960Z,3.10
2022-12-31T10:42:57.910Z,2.60
2022-12-31T10:43:57.829Z,2.20
2022-12-31T10:44:57.740Z,3.00
2022-12-31T10:45:57.704Z,2.80
2022-12-31T10:46:57.581Z,3.00
2022-12-31T10:47:57.514Z,2.50
2022-12-31T10:48:57.449Z,2.30
2022-12-31T10:49:57.363Z,2.10
2022-12-31T10:50:57.281Z,2.30
2022-12-31T10:51:57.195Z,1.90
2022-12-31T10:52:57.144Z,2.10
2022-12-31T10:53:57.070Z,2.40
2022-12-31T10:54:56.975Z,2.00
2022-12-31T10:55:56.912Z,1.90
2022-12-31T10:56:56.827Z,2.30
2022-12-31T10:58:01.996Z,2.00
2022-12-31T10:58:57.695Z,2.00
2022-12-31T10:59:56.609Z,2.00
2022-12-31T11:00:56.563Z,2.20
2022-12-31T11:01:56.599Z,1.80
2022-12-31T11:02:56.563Z,1.70
2022-12-31T11:03:56.317Z,2.20
2022-12-31T11:04:56.235Z,2.50
2022-12-31T11:05:56.168Z,2.10
2022-12-31T11:06:56.080Z,1.70
2022-12-31T11:07:56.023Z,2.20
2022-12-31T11:08:55.926Z,1.80
2022-12-31T11:09:55.880Z,1.90
2022-12-31T11:10:55.769Z,1.90
2022-12-31T11:11:55.698Z,2.90
2022-12-31T11:12:55.620Z,2.10
2022-12-31T11:13:55.547Z,1.90
2022-12-31T11:14:55.480Z,2.00
2022-12-31T11:15:55.422Z,1.90
2022-12-31T11:16:55.314Z,1.80
2022-12-31T11:17:55.235Z,2.00
2022-12-31T11:18:55.141Z,2.00
2022-12-31T11:19:55.078Z,1.90
2022-12-31T11:20:55.015Z,1.60
2022-12-31T11:21:54.924Z,1.80
2022-12-31T11:22:54.853Z,2.00
2022-12-31T11:24:44.528Z,1.70
2022-12-31T11:25:44.507Z,1.70
2022-12-31T11:26:44.441Z,2.20
2022-12-31T11:27:48.977Z,2.20
2022-12-31T11:28:44.391Z,2.00
2022-12-31T11:29:44.372Z,1.80
2022-12-31T11:30:44.318Z,2.00
2022-12-31T11:31:44.289Z,2.60
2022-12-31T11:32:44.255Z,1.60
2022-12-31T11:33:50.036Z,2.20
2022-12-31T11:34:45.188Z,2.10
2022-12-31T11:35:44.152Z,1.70
2022-12-31T11:36:44.132Z,2.00
2022-12-31T11:37:44.072Z,2.20
2022-12-31T11:38:44.063Z,2.00
2022-12-31T11:39:44.022Z,2.50
2022-12-31T11:40:43.987Z,3.00
2022-12-31T11:41:43.967Z,2.00
2022-12-31T11:42:43.938Z,1.90
2022-12-31T11:43:43.886Z,2.20
2022-12-31T11:44:43.835Z,1.80
2022-12-31T11:45:48.683Z,1.70
2022-12-31T11:46:44.857Z,1.80
2022-12-31T11:48:20.205Z,1.80
2022-12-31T11:48:44.715Z,1.70
2022-12-31T11:49:43.658Z,1.60
2022-12-31T11:50:43.637Z,1.70
2022-12-31T11:51:50.002Z,1.50
2022-12-31T11:52:44.569Z,1.80
2022-12-31T11:53:43.507Z,1.40
2022-12-31T11:54:43.466Z,1.70
2022-12-31T11:55:43.426Z,1.60
2022-12-31T11:56:43.397Z,1.60
2022-12-31T11:57:43.346Z,1.50
2022-12-31T11:58:43.337Z,1.80
2022-12-31T11:59:43.294Z,2.10
2022-12-31T12:00:43.268Z,2.00
2022-12-31T12:01:43.236Z,1.60
2022-12-31T12:02:43.242Z,1.80
2022-12-31T12:03:43.217Z,2.50
2022-12-31T12:04:43.094Z,2.00
2022-12-31T12:05:43.040Z,1.80
2022-12-31T12:06:42.999Z,1.90
2022-12-31T12:07:42.953Z,2.20
2022-12-31T12:08:42.924Z,1.80
2022-12-31T12:09:42.840Z,1.70
2022-12-31T12:10:42.811Z,1.80
2022-12-31T12:11:42.745Z,1.70
2022-12-31T12:12:42.716Z,1.80
2022-12-31T12:13:42.672Z,2.00
2022-12-31T12:14:42.592Z,2.00
2022-12-31T12:15:42.525Z,2.10
2022-12-31T12:16:42.512Z,2.90
2022-12-31T12:17:42.445Z,2.20
2022-12-31T12:18:42.391Z,1.80
2022-12-31T12:19:42.345Z,1.80
2022-12-31T12:20:42.275Z,1.70
2022-12-31T12:21:42.206Z,1.60
2022-12-31T12:22:46.457Z,1.60
2022-12-31T12:23:43.094Z,1.50
2022-12-31T12:24:42.081Z,1.60
2022-12-31T12:25:41.987Z,1.40
2022-12-31T12:26:41.950Z,1.40
2022-12-31T12:27:41.878Z,1.50
2022-12-31T12:28:44.384Z,1.80
2022-12-31T12:29:41.755Z,1.40
2022-12-31T12:30:41.762Z,1.60
2022-12-31T12:31:41.702Z,1.40
2022-12-31T12:32:41.603Z,1.50
2022-12-31T12:33:41.543Z,1.70
2022-12-31T12:34:46.058Z,1.60
2022-12-31T12:35:42.440Z,2.20
2022-12-31T12:36:41.388Z,1.80
2022-12-31T12:37:41.331Z,1.50
2022-12-31T12:38:41.300Z,1.50
2022-12-31T12:39:41.228Z,1.60
2022-12-31T12:40:41.211Z,1.50
2022-12-31T12:41:41.125Z,1.30
2022-12-31T12:42:41.069Z,2.10
2022-12-31T12:43:41.018Z,1.70
2022-12-31T12:44:40.975Z,1.30
2022-12-31T12:45:40.916Z,1.70
2022-12-31T12:46:46.042Z,1.50
2022-12-31T12:47:41.802Z,1.50
2022-12-31T12:48:40.774Z,2.00
2022-12-31T12:49:40.695Z,1.50
2022-12-31T12:50:40.656Z,1.50
2022-12-31T12:51:40.576Z,1.50
2022-12-31T12:52:40.538Z,1.70
2022-12-31T12:53:40.465Z,1.50
2022-12-31T12:54:40.429Z,1.50
2022-12-31T12:55:40.383Z,1.60
2022-12-31T12:56:40.357Z,1.60
2022-12-31T12:57:40.283Z,1.30
2022-12-31T12:58:40.255Z,1.60
2022-12-31T12:59:40.178Z,1.70
2022-12-31T13:00:40.170Z,1.40
2022-12-31T13:01:40.310Z,1.60
2022-12-31T13:02:40.090Z,1.60
2022-12-31T13:03:53.986Z,1.70
2022-12-31T13:04:40.935Z,1.80
2022-12-31T13:05:39.880Z,1.80
2022-12-31T13:06:39.864Z,1.50
2022-12-31T13:07:39.774Z,2.30
2022-12-31T13:08:39.751Z,1.90
2022-12-31T13:09:39.734Z,1.80
2022-12-31T13:10:39.630Z,2.30
2022-12-31T13:11:39.604Z,2.10
2022-12-31T13:13:13.663Z,2.00
2022-12-31T13:13:40.484Z,1.90
2022-12-31T13:14:39.402Z,1.50
2022-12-31T13:15:39.343Z,1.40
2022-12-31T13:16:39.367Z,1.40
2022-12-31T13:17:39.263Z,2.10
2022-12-31T13:18:39.224Z,2.30
2022-12-31T13:19:39.160Z,2.40
2022-12-31T13:20:39.093Z,2.70
2022-12-31T13:21:39.042Z,2.10
2022-12-31T13:22:39.024Z,1.30
2022-12-31T13:23:39.993Z,2.00
2022-12-31T13:24:38.895Z,1.80
2022-12-31T13:25:38.837Z,1.90
2022-12-31T13:26:38.799Z,3.70
2022-12-31T13:27:38.756Z,3.50
2022-12-31T13:28:38.719Z,2.10
2022-12-31T13:29:38.635Z,2.10
2022-12-31T13:30:38.586Z,2.10
2022-12-31T13:31:38.598Z,1.90
2022-12-31T13:32:38.487Z,2.10
2022-12-31T13:33:38.483Z,1.80
2022-12-31T13:34:38.401Z,1.90
2022-12-31T13:35:38.345Z,1.40
2022-12-31T13:36:38.306Z,1.30
2022-12-31T13:37:38.257Z,1.60
2022-12-31T13:38:38.256Z,1.50
2022-12-31T13:39:38.160Z,1.50
2022-12-31T13:40:38.120Z,1.70
2022-12-31T13:41:38.080Z,1.40
2022-12-31T13:42:38.027Z,1.30
2022-12-31T13:43:38.001Z,1.40
2022-12-31T13:44:37.934Z,1.40
2022-12-31T13:45:37.897Z,1.40
2022-12-31T13:46:37.857Z,1.70
2022-12-31T13:47:37.793Z,1.60
2022-12-31T13:48:37.757Z,1.60
2022-12-31T13:49:37.717Z,1.60
2022-12-31T13:50:37.658Z,1.60
2022-12-31T13:51:37.614Z,1.60
2022-12-31T13:52:37.589Z,1.70
2022-12-31T13:53:37.527Z,1.60
2022-12-31T13:54:37.506Z,1.70
2022-12-31T13:55:37.451Z,1.50
2022-12-31T13:56:37.400Z,1.30
2022-12-31T13:57:37.346Z,1.60
2022-12-31T13:58:37.298Z,1.70
2022-12-31T13:59:37.267Z,1.70
2022-12-31T14:00:37.254Z,1.30
2022-12-31T14:01:37.317Z,1.60
2022-12-31T14:02:37.246Z,1.60
2022-12-31T14:03:37.090Z,1.50
2022-12-31T14:04:37.085Z,1.80
2022-12-31T14:05:37.030Z,1.50
2022-12-31T14:06:36.991Z,1.50
2022-12-31T14:07:45.169Z,1.40
2022-12-31T14:08:37.884Z,1.50
2022-12-31T14:09:36.841Z,1.60
2022-12-31T14:10:36.814Z,1.50
2022-12-31T14:11:36.753Z,2.20
2022-12-31T14:12:36.704Z,1.40
2022-12-31T14:13:36.667Z,1.40
2022-12-31T14:14:36.617Z,1.40
2022-12-31T14:15:36.587Z,1.40
2022-12-31T14:16:36.572Z,1.40
2022-12-31T14:17:36.501Z,1.40
2022-12-31T14:18:36.444Z,1.40
2022-12-31T14:19:40.984Z,1.30
2022-12-31T14:20:37.365Z,1.50
2022-12-31T14:21:36.306Z,1.60
2022-12-31T14:22:36.274Z,1.40
2022-12-31T14:23:36.223Z,1.50
2022-12-31T14:24:36.179Z,1.50
2022-12-31T14:25:36.126Z,1.40
2022-12-31T14:26:36.106Z,1.40
2022-12-31T14:27:36.049Z,1.60
2022-12-31T14:28:36.965Z,1.70
2022-12-31T14:29:35.957Z,1.50
2022-12-31T14:30:35.923Z,1.50
2022-12-31T14:31:35.922Z,1.50
2022-12-31T14:32:35.875Z,1.70
2022-12-31T14:33:35.798Z,1.80
2022-12-31T14:34:35.740Z,1.90
2022-12-31T14:35:35.720Z,1.70
2022-12-31T14:36:35.689Z,1.60
2022-12-31T14:37:35.627Z,1.60
2022-12-31T14:38:35.591Z,2.00
2022-12-31T14:39:35.560Z,1.80
2022-12-31T14:40:35.491Z,1.80
2022-12-31T14:41:35.478Z,1.60
2022-12-31T14:42:35.394Z,1.50
2022-12-31T14:43:35.351Z,1.90
2022-12-31T14:44:35.311Z,1.60
2022-12-31T14:45:35.294Z,1.90
2022-12-31T14:46:35.223Z,1.70
2022-12-31T14:47:35.212Z,1.60
2022-12-31T14:48:35.143Z,1.70
2022-12-31T14:49:35.113Z,1.80
2022-12-31T14:50:35.088Z,2.30
2022-12-31T14:51:35.067Z,1.60
2022-12-31T14:52:35.360Z,1.70
2022-12-31T14:53:34.961Z,1.50
2022-12-31T14:54:34.938Z,1.60
2022-12-31T14:55:34.907Z,1.50
2022-12-31T14:56:34.859Z,1.50
2022-12-31T14:57:54.511Z,1.60
2022-12-31T14:58:35.831Z,1.70
2022-12-31T14:59:40.275Z,1.80
2022-12-31T15:00:35.697Z,1.80
2022-12-31T15:01:34.760Z,1.50
2022-12-31T15:02:34.968Z,1.60
2022-12-31T15:03:34.612Z,1.50
2022-12-31T15:04:34.537Z,1.50
2022-12-31T15:05:34.508Z,1.60
2022-12-31T15:06:34.460Z,1.90
2022-12-31T15:07:34.420Z,1.70
2022-12-31T15:08:34.393Z,1.70
2022-12-31T15:09:34.347Z,1.60
2022-12-31T15:10:34.300Z,2.10
2022-12-31T15:11:34.269Z,1.80
2022-12-31T15:12:34.207Z,1.60
2022-12-31T15:13:34.197Z,1.60
2022-12-31T15:14:37.395Z,2.10
2022-12-31T15:15:34.108Z,1.70
2022-12-31T15:16:34.105Z,1.80
2022-12-31T15:17:34.012Z,1.80
2022-12-31T15:18:33.993Z,1.70
2022-12-31T15:19:33.964Z,1.60
2022-12-31T15:20:33.905Z,2.10
2022-12-31T15:21:33.887Z,1.70
2022-12-31T15:22:33.844Z,1.70
2022-12-31T15:23:33.814Z,1.80
2022-12-31T15:24:33.773Z,1.70
2022-12-31T15:25:40.079Z,2.00
2022-12-31T15:26:34.718Z,1.70
2022-12-31T15:27:33.695Z,1.50
2022-12-31T15:28:33.651Z,1.80
2022-12-31T15:29:33.648Z,1.90
2022-12-31T15:30:33.600Z,1.80
2022-12-31T15:31:33.587Z,1.90
2022-12-31T15:32:33.507Z,1.80
2022-12-31T15:33:33.475Z,1.90
2022-12-31T15:34:33.473Z,2.00
2022-12-31T15:35:33.424Z,1.80
2022-12-31T15:36:33.387Z,2.70
2022-12-31T15:37:33.368Z,2.00
2022-12-31T15:38:33.308Z,2.10
2022-12-31T15:39:33.313Z,2.10
2022-12-31T15:40:33.247Z,1.90
2022-12-31T15:41:33.210Z,2.10
2022-12-31T15:42:38.222Z,2.10
2022-12-31T15:43:34.159Z,2.00
2022-12-31T15:44:33.154Z,2.10
2022-12-31T15:45:33.101Z,2.10
2022-12-31T15:46:33.127Z,2.20
2022-12-31T15:47:33.067Z,2.00
2022-12-31T15:48:33.022Z,2.20
2022-12-31T15:49:33.004Z,1.80
2022-12-31T15:50:32.979Z,2.00
2022-12-31T15:51:32.945Z,2.00
2022-12-31T15:52:32.920Z,2.00
2022-12-31T15:53:32.906Z,2.00
2022-12-31T15:54:32.888Z,2.00
2022-12-31T15:55:32.874Z,2.10
2022-12-31T15:56:32.839Z,1.80
2022-12-31T15:57:32.802Z,2.20
2022-12-31T15:58:32.771Z,2.00
2022-12-31T15:59:32.746Z,1.90
2022-12-31T16:00:32.737Z,1.80
2022-12-31T16:01:32.758Z,2.00
2022-12-31T16:02:32.730Z,1.80
2022-12-31T16:03:32.700Z,1.90
2022-12-31T16:04:32.607Z,2.10
2022-12-31T16:05:32.618Z,2.10
2022-12-31T16:06:32.594Z,2.10
2022-12-31T16:07:32.537Z,1.80
2022-12-31T16:08:32.548Z,1.80
2022-12-31T16:09:32.491Z,2.00
2022-12-31T16:10:32.477Z,1.70
2022-12-31T16:11:32.463Z,1.80
2022-12-31T16:12:34.384Z,1.70
2022-12-31T16:13:32.402Z,1.90
2022-12-31T16:14:32.359Z,1.90
2022-12-31T16:15:32.398Z,1.70
2022-12-31T16:16:32.312Z,1.70
2022-12-31T16:17:32.300Z,1.70
2022-12-31T16:18:32.261Z,2.00
2022-12-31T16:19:32.239Z,1.90
2022-12-31T16:20:32.216Z,1.90
2022-12-31T16:21:32.224Z,1.80
2022-12-31T16:22:32.178Z,1.90
2022-12-31T16:23:37.427Z,2.30
2022-12-31T16:24:33.180Z,2.00
2022-12-31T16:25:32.927Z,1.90
2022-12-31T16:26:32.068Z,1.90
2022-12-31T16:27:32.065Z,2.00
2022-12-31T16:28:32.012Z,1.70
2022-12-31T16:29:31.999Z,1.80
2022-12-31T16:30:32.002Z,1.90
2022-12-31T16:31:32.003Z,1.80
2022-12-31T16:32:31.945Z,2.00
2022-12-31T16:33:31.915Z,1.80
2022-12-31T16:34:31.882Z,1.90
2022-12-31T16:35:31.871Z,1.90
2022-12-31T16:36:31.824Z,1.70
2022-12-31T16:37:31.838Z,1.90
2022-12-31T16:38:31.790Z,2.00
2022-12-31T16:39:31.772Z,1.70
2022-12-31T16:40:31.733Z,2.00
2022-12-31T16:41:31.708Z,1.70
2022-12-31T16:42:31.674Z,2.00
2022-12-31T16:43:31.673Z,2.00
2022-12-31T16:44:31.626Z,2.10
2022-12-31T16:45:31.613Z,2.10
2022-12-31T16:46:31.626Z,2.00
2022-12-31T16:47:31.548Z,1.90
2022-12-31T16:48:31.538Z,1.90
2022-12-31T16:49:31.555Z,1.90
2022-12-31T16:50:31.478Z,1.90
2022-12-31T16:51:31.479Z,1.90
2022-12-31T16:52:31.459Z,2.10
2022-12-31T16:53:31.427Z,1.90
2022-12-31T16:54:31.434Z,2.40
2022-12-31T16:55:31.408Z,2.20
2022-12-31T16:56:31.373Z,2.20
2022-12-31T16:57:31.345Z,2.20
2022-12-31T16:58:31.321Z,2.10
2022-12-31T16:59:35.113Z,2.10
2022-12-31T17:00:31.277Z,2.10
2022-12-31T17:01:31.359Z,2.30
2022-12-31T17:02:31.291Z,2.30
2022-12-31T17:03:31.269Z,2.20
2022-12-31T17:04:31.187Z,2.20
2022-12-31T17:05:31.209Z,2.50
2022-12-31T17:06:31.146Z,2.10
2022-12-31T17:07:31.133Z,2.10
2022-12-31T17:08:31.125Z,2.10
2022-12-31T17:09:31.102Z,2.00
2022-12-31T17:10:31.093Z,2.10
2022-12-31T17:11:31.072Z,2.10
2022-12-31T17:12:37.546Z,2.50
2022-12-31T17:13:32.026Z,2.10
2022-12-31T17:14:31.006Z,2.20
2022-12-31T17:15:30.996Z,2.10
2022-12-31T17:16:30.995Z,2.30
2022-12-31T17:17:30.947Z,2.30
2022-12-31T17:18:30.917Z,2.10
2022-12-31T17:19:30.909Z,2.70
2022-12-31T17:20:30.911Z,2.20
2022-12-31T17:21:30.902Z,2.40
2022-12-31T17:22:35.829Z,2.30
2022-12-31T17:23:31.836Z,2.20
2022-12-31T17:24:37.799Z,2.10
2022-12-31T17:25:30.791Z,2.50
2022-12-31T17:26:30.752Z,2.00
2022-12-31T17:27:30.733Z,2.30
2022-12-31T17:28:30.711Z,2.00
2022-12-31T17:29:30.698Z,2.20
2022-12-31T17:30:30.683Z,2.40
2022-12-31T17:31:30.783Z,2.20
2022-12-31T17:32:30.663Z,2.10
2022-12-31T17:33:30.643Z,2.10
2022-12-31T17:34:30.627Z,2.20
2022-12-31T17:35:30.627Z,2.20
2022-12-31T17:36:30.595Z,2.00
2022-12-31T17:37:30.552Z,2.60
2022-12-31T17:38:30.559Z,2.10
2022-12-31T17:39:30.529Z,2.30
2022-12-31T17:40:50.863Z,2.30
2022-12-31T17:41:31.515Z,2.50
2022-12-31T17:42:30.446Z,2.20
2022-12-31T17:43:35.030Z,2.10
2022-12-31T17:44:31.407Z,2.30
2022-12-31T17:45:30.384Z,2.40
2022-12-31T17:46:30.385Z,2.30
2022-12-31T17:47:30.327Z,2.40
2022-12-31T17:48:30.296Z,2.20
2022-12-31T17:49:30.282Z,2.30
2022-12-31T17:50:30.253Z,2.00
2022-12-31T17:51:30.226Z,2.10
2022-12-31T17:52:30.216Z,2.20
2022-12-31T17:53:30.185Z,2.00
2022-12-31T17:54:30.145Z,2.10
2022-12-31T17:55:30.116Z,1.90
2022-12-31T17:56:30.079Z,2.10
2022-12-31T17:57:30.080Z,2.10
2022-12-31T17:58:30.137Z,2.10
2022-12-31T17:59:30.019Z,2.30
2022-12-31T18:00:30.001Z,2.10
2022-12-31T18:01:30.004Z,2.10
2022-12-31T18:02:30.053Z,2.20
2022-12-31T18:03:29.923Z,2.20
2022-12-31T18:04:29.882Z,2.00
2022-12-31T18:05:29.862Z,2.50
2022-12-31T18:06:29.837Z,2.10
2022-12-31T18:07:29.825Z,2.40
2022-12-31T18:08:29.820Z,2.20
2022-12-31T18:09:29.778Z,2.00
2022-12-31T18:10:29.763Z,2.30
2022-12-31T18:11:29.752Z,2.20
2022-12-31T18:12:29.729Z,2.20
2022-12-31T18:13:29.723Z,2.20
2022-12-31T18:14:29.683Z,2.00
2022-12-31T18:15:29.679Z,2.10
2022-12-31T18:16:29.698Z,2.10
2022-12-31T18:17:29.629Z,2.20
2022-12-31T18:18:29.624Z,2.10
2022-12-31T18:20:02.648Z,1.90
2022-12-31T18:20:30.568Z,2.10
2022-12-31T18:21:29.568Z,2.10
2022-12-31T18:22:29.534Z,1.70
2022-12-31T18:23:29.520Z,2.30
2022-12-31T18:24:29.490Z,1.90
2022-12-31T18:25:29.467Z,2.20
2022-12-31T18:26:29.491Z,1.90
2022-12-31T18:27:29.438Z,2.10
2022-12-31T18:28:29.467Z,1.80
2022-12-31T18:29:29.426Z,1.60
2022-12-31T18:30:29.407Z,2.10
2022-12-31T18:31:29.523Z,1.90
2022-12-31T18:32:29.389Z,1.80
2022-12-31T18:33:29.369Z,1.80
2022-12-31T18:34:29.359Z,2.10
2022-12-31T18:35:58.132Z,2.00
2022-12-31T18:36:30.325Z,1.90
2022-12-31T18:37:29.297Z,1.90
2022-12-31T18:38:29.267Z,2.20
2022-12-31T18:39:29.263Z,1.90
2022-12-31T18:40:29.210Z,2.10
2022-12-31T18:41:29.182Z,1.90
2022-12-31T18:42:29.165Z,2.10
2022-12-31T18:43:29.180Z,2.00
2022-12-31T18:44:29.141Z,2.20
2022-12-31T18:45:29.140Z,2.30
2022-12-31T18:46:29.375Z,2.10
2022-12-31T18:47:34.216Z,2.00
2022-12-31T18:48:30.083Z,2.10
2022-12-31T18:49:29.050Z,1.90
2022-12-31T18:50:29.141Z,2.30
2022-12-31T18:51:32.008Z,2.40
2022-12-31T18:52:28.992Z,2.10
2022-12-31T18:53:29.025Z,2.40
2022-12-31T18:54:28.971Z,2.20
2022-12-31T18:55:28.956Z,2.20
2022-12-31T18:56:28.955Z,2.60
2022-12-31T18:57:28.888Z,2.50
2022-12-31T18:58:28.885Z,2.30
2022-12-31T18:59:28.846Z,2.10
2022-12-31T19:00:28.847Z,2.60
2022-12-31T19:01:29.028Z,2.40
2022-12-31T19:02:28.799Z,2.50
2022-12-31T19:03:28.850Z,2.60
2022-12-31T19:04:28.753Z,2.30
2022-12-31T19:05:28.744Z,2.50
2022-12-31T19:06:28.713Z,2.50
2022-12-31T19:07:28.703Z,2.30
2022-12-31T19:08:28.680Z,2.60
2022-12-31T19:09:45.038Z,2.60
2022-12-31T19:10:29.656Z,3.00
2022-12-31T19:11:28.616Z,2.60
2022-12-31T19:12:28.608Z,2.90
2022-12-31T19:13:28.587Z,2.80
2022-12-31T19:14:28.563Z,2.60
2022-12-31T19:15:28.561Z,3.40
2022-12-31T19:16:28.557Z,3.00
2022-12-31T19:17:28.503Z,2.80
2022-12-31T19:18:28.500Z,3.00
2022-12-31T19:19:28.474Z,3.30
2022-12-31T19:20:28.513Z,2.80
2022-12-31T19:21:28.435Z,3.80
2022-12-31T19:22:28.413Z,4.00
2022-12-31T19:23:28.396Z,3.40
2022-12-31T19:24:28.375Z,3.40
2022-12-31T19:25:28.358Z,3.10
2022-12-31T19:26:28.355Z,2.80
2022-12-31T19:27:28.312Z,3.30
2022-12-31T19:28:28.314Z,3.10
2022-12-31T19:29:28.314Z,3.00
2022-12-31T19:30:28.271Z,2.80
2022-12-31T19:31:28.365Z,3.00
2022-12-31T19:32:28.247Z,2.90
2022-12-31T19:33:28.263Z,3.00
2022-12-31T19:34:28.235Z,3.10
2022-12-31T19:35:28.291Z,2.80
2022-12-31T19:36:28.201Z,2.80
2022-12-31T19:37:28.228Z,2.90
2022-12-31T19:38:28.191Z,3.20
2022-12-31T19:39:28.186Z,3.20
2022-12-31T19:40:28.192Z,2.70
2022-12-31T19:41:28.145Z,2.70
2022-12-31T19:42:28.142Z,3.00
2022-12-31T19:43:28.119Z,2.70
2022-12-31T19:44:28.151Z,2.60
2022-12-31T19:45:28.098Z,2.90
2022-12-31T19:46:28.111Z,2.80
2022-12-31T19:47:28.097Z,2.90
2022-12-31T19:48:32.532Z,2.90
2022-12-31T19:49:29.074Z,3.20
2022-12-31T19:50:28.088Z,3.00
2022-12-31T19:51:28.047Z,3.20
2022-12-31T19:52:28.085Z,2.80
2022-12-31T19:53:28.013Z,3.00
2022-12-31T19:54:27.979Z,3.10
2022-12-31T19:55:27.970Z,2.60
2022-12-31T19:56:27.964Z,2.90
2022-12-31T19:57:27.943Z,3.50
2022-12-31T19:58:27.962Z,3.00
2022-12-31T19:59:27.911Z,3.30
2022-12-31T20:00:27.894Z,3.00
2022-12-31T20:01:27.951Z,3.20
2022-12-31T20:02:28.042Z,2.80
2022-12-31T20:03:27.878Z,3.20
2022-12-31T20:04:27.833Z,2.80
2022-12-31T20:05:27.829Z,3.70
2022-12-31T20:06:27.805Z,3.50
2022-12-31T20:07:27.772Z,3.30
2022-12-31T20:08:27.754Z,3.00
2022-12-31T20:09:27.736Z,3.00
2022-12-31T20:10:27.732Z,3.30
2022-12-31T20:11:27.723Z,3.00
2022-12-31T20:12:27.696Z,3.00
2022-12-31T20:13:27.668Z,3.20
2022-12-31T20:14:27.677Z,3.10
2022-12-31T20:15:27.636Z,2.90
2022-12-31T20:16:27.669Z,3.10
2022-12-31T20:17:27.596Z,3.10
2022-12-31T20:18:27.597Z,3.00
2022-12-31T20:19:27.576Z,3.30
2022-12-31T20:20:27.565Z,3.40
2022-12-31T20:21:27.537Z,4.30
2022-12-31T20:22:27.519Z,4.40
2022-12-31T20:23:27.508Z,3.60
2022-12-31T20:24:27.500Z,3.60
2022-12-31T20:25:27.461Z,3.50
2022-12-31T20:26:27.438Z,3.30
2022-12-31T20:27:27.419Z,3.40
2022-12-31T20:28:27.406Z,3.70
2022-12-31T20:29:27.388Z,3.70
2022-12-31T20:30:27.468Z,3.50
2022-12-31T20:31:27.390Z,3.80
2022-12-31T20:32:27.371Z,3.70
2022-12-31T20:33:27.374Z,3.40
2022-12-31T20:34:27.380Z,3.60
2022-12-31T20:35:27.371Z,4.00
2022-12-31T20:36:27.364Z,4.10
2022-12-31T20:37:27.365Z,3.90
2022-12-31T20:38:27.343Z,3.90
2022-12-31T20:39:27.334Z,4.00
2022-12-31T20:40:27.353Z,4.10
2022-12-31T20:41:27.340Z,4.40
2022-12-31T20:42:27.315Z,4.50
2022-12-31T20:43:27.314Z,6.70
2022-12-31T20:44:27.302Z,6.60
2022-12-31T20:45:27.301Z,6.60
2022-12-31T20:46:27.368Z,7.20
2022-12-31T20:47:27.267Z,7.80
2022-12-31T20:48:27.306Z,8.10
2022-12-31T20:49:44.792Z,7.80
2022-12-31T20:50:28.288Z,7.90
2022-12-31T20:51:27.240Z,8.20
2022-12-31T20:52:27.236Z,7.90
2022-12-31T20:53:27.231Z,9.50
2022-12-31T20:54:27.226Z,8.40
2022-12-31T20:55:27.226Z,7.80
2022-12-31T20:56:27.208Z,8.20
2022-12-31T20:57:31.613Z,8.70
2022-12-31T20:58:28.189Z,8.30
2022-12-31T20:59:27.187Z,7.90
2022-12-31T21:00:27.214Z,8.10
2022-12-31T21:01:36.379Z,8.80
2022-12-31T21:02:40.989Z,8.70
2022-12-31T21:04:02.292Z,9.10
2022-12-31T21:04:28.311Z,8.90
2022-12-31T21:05:27.495Z,8.60
2022-12-31T21:06:27.163Z,8.00
2022-12-31T21:07:27.162Z,8.30
2022-12-31T21:08:32.645Z,8.00
2022-12-31T21:09:28.142Z,8.10
2022-12-31T21:10:27.174Z,7.60
2022-12-31T21:11:27.133Z,8.40
2022-12-31T21:12:27.143Z,6.80
2022-12-31T21:13:27.134Z,8.40
2022-12-31T21:14:27.140Z,7.30
2022-12-31T21:15:27.176Z,6.30
2022-12-31T21:16:27.125Z,5.00
2022-12-31T21:17:27.121Z,5.60
2022-12-31T21:18:27.132Z,5.60
2022-12-31T21:19:27.107Z,5.40
2022-12-31T21:20:27.127Z,5.60
2022-12-31T21:21:27.117Z,6.90
2022-12-31T21:22:27.145Z,6.20
2022-12-31T21:23:27.114Z,5.50
2022-12-31T21:24:27.095Z,5.60
2022-12-31T21:25:27.105Z,5.10
2022-12-31T21:26:27.103Z,5.10
2022-12-31T21:27:27.098Z,4.50
2022-12-31T21:28:27.086Z,4.60
2022-12-31T21:29:30.005Z,4.50
2022-12-31T21:30:28.111Z,4.50
2022-12-31T21:31:27.144Z,4.60
2022-12-31T21:32:27.084Z,4.50
2022-12-31T21:33:27.078Z,4.50
2022-12-31T21:34:27.068Z,4.40
2022-12-31T21:35:45.727Z,4.40
2022-12-31T21:36:28.080Z,4.30
2022-12-31T21:37:27.072Z,4.60
2022-12-31T21:38:28.058Z,4.50
2022-12-31T21:39:27.048Z,4.40
2022-12-31T21:40:27.058Z,4.50
2022-12-31T21:41:32.813Z,4.50
2022-12-31T21:42:28.043Z,5.00
2022-12-31T21:43:27.029Z,6.20
2022-12-31T21:44:27.009Z,17.50
2022-12-31T21:45:27.018Z,17.80
2022-12-31T21:46:27.053Z,8.00
2022-12-31T21:47:36.434Z,7.90
2022-12-31T21:48:27.990Z,6.60
2022-12-31T21:49:26.973Z,5.50
2022-12-31T21:50:26.974Z,4.30
2022-12-31T21:51:26.977Z,4.30
2022-12-31T21:52:26.955Z,4.30
2022-12-31T21:53:34.138Z,4.20
2022-12-31T21:54:27.963Z,4.40
2022-12-31T21:55:26.953Z,4.90
2022-12-31T21:56:26.941Z,4.70
2022-12-31T21:57:26.957Z,4.50
2022-12-31T21:58:27.932Z,4.60
2022-12-31T21:59:26.905Z,4.50
2022-12-31T22:00:40.918Z,4.40
2022-12-31T22:01:28.003Z,4.00
2022-12-31T22:02:27.023Z,4.30
2022-12-31T22:03:27.119Z,4.30
2022-12-31T22:04:59.580Z,4.20
2022-12-31T22:05:27.892Z,4.30
2022-12-31T22:06:26.896Z,3.90
2022-12-31T22:07:26.886Z,4.20
2022-12-31T22:08:26.884Z,4.10
2022-12-31T22:09:26.867Z,4.30
2022-12-31T22:10:26.874Z,4.20
2022-12-31T22:11:26.868Z,4.60
2022-12-31T22:12:26.950Z,4.70
2022-12-31T22:13:26.866Z,4.90
2022-12-31T22:14:26.865Z,5.00
2022-12-31T22:15:26.850Z,5.50
2022-12-31T22:16:26.854Z,6.80
2022-12-31T22:17:26.879Z,5.10
2022-12-31T22:18:26.834Z,4.70
2022-12-31T22:19:26.814Z,4.50
2022-12-31T22:20:28.277Z,4.60
2022-12-31T22:21:26.808Z,4.60
2022-12-31T22:22:26.812Z,4.60
2022-12-31T22:23:26.780Z,4.30
2022-12-31T22:24:26.761Z,4.70
2022-12-31T22:25:26.764Z,4.20
2022-12-31T22:26:26.759Z,4.20
2022-12-31T22:27:28.172Z,4.40
2022-12-31T22:28:37.944Z,4.30
2022-12-31T22:29:27.722Z,4.20
2022-12-31T22:30:26.713Z,4.60
2022-12-31T22:31:26.767Z,4.40
2022-12-31T22:32:26.703Z,4.40
2022-12-31T22:33:26.702Z,4.20
2022-12-31T22:34:26.684Z,4.40
2022-12-31T22:35:26.731Z,4.20
2022-12-31T22:36:26.684Z,4.20
2022-12-31T22:37:55.705Z,4.60
2022-12-31T22:38:27.672Z,4.20
2022-12-31T22:39:44.472Z,4.80
2022-12-31T22:40:27.635Z,4.90
2022-12-31T22:41:26.651Z,4.50
2022-12-31T22:42:26.626Z,4.70
2022-12-31T22:43:26.638Z,4.70
2022-12-31T22:44:26.622Z,4.40
2022-12-31T22:45:26.607Z,4.40
2022-12-31T22:46:26.659Z,4.40
2022-12-31T22:47:26.597Z,4.60
2022-12-31T22:48:26.599Z,4.60
2022-12-31T22:49:26.608Z,4.90
2022-12-31T22:50:26.616Z,4.50
2022-12-31T22:51:55.227Z,4.60
2022-12-31T22:52:27.578Z,4.60
2022-12-31T22:53:26.580Z,4.80
2022-12-31T22:54:26.578Z,4.40
2022-12-31T22:55:26.573Z,4.60
2022-12-31T22:56:26.559Z,4.90
2022-12-31T22:57:26.561Z,4.80
2022-12-31T22:58:26.531Z,4.80
2022-12-31T22:59:26.555Z,4.30
2022-12-31T23:00:26.551Z,4.80
2022-12-31T23:01:26.551Z,4.90
2022-12-31T23:02:26.543Z,4.70
2022-12-31T23:03:26.569Z,4.50
2022-12-31T23:04:26.528Z,4.60
2022-12-31T23:05:26.503Z,5.80
2022-12-31T23:06:26.492Z,5.40
2022-12-31T23:07:26.491Z,5.40